createdAt,value
2018-11-03T00:02:09.689Z,38.83
2018-11-03T00:04:40.118Z,51.27
2018-11-03T00:07:10.469Z,40.97
2018-11-03T00:09:41.122Z,44.80
2018-11-03T00:12:11.559Z,50.77
2018-11-03T00:14:41.887Z,46.63
2018-11-03T00:17:12.267Z,47.70
2018-11-03T00:19:42.735Z,41.97
2018-11-03T00:22:13.190Z,51.27
2018-11-03T00:24:43.548Z,53.43
2018-11-03T00:27:13.836Z,71.63
2018-11-03T00:29:44.172Z,52.43
2018-11-03T00:32:14.525Z,76.03
2018-11-03T00:34:44.776Z,32.10
2018-11-03T00:37:15.107Z,32.87
2018-11-03T00:39:45.329Z,39.13
2018-11-03T00:42:15.629Z,32.30
2018-11-03T00:44:45.913Z,43.33
2018-11-03T00:47:16.242Z,43.17
2018-11-03T00:49:46.638Z,39.00
2018-11-03T00:52:16.884Z,40.50
2018-11-03T00:54:47.151Z,37.07
2018-11-03T00:57:17.616Z,40.70
2018-11-03T00:59:47.871Z,41.67
2018-11-03T01:02:18.193Z,41.27
2018-11-03T01:04:48.627Z,37.33
2018-11-03T01:07:18.927Z,47.13
2018-11-03T01:09:49.202Z,49.17
2018-11-03T01:12:19.510Z,43.33
2018-11-03T01:14:49.816Z,40.90
2018-11-03T01:17:20.116Z,48.13
2018-11-03T01:19:50.416Z,38.90
2018-11-03T01:22:20.721Z,39.83
2018-11-03T01:24:51.071Z,41.70
2018-11-03T01:27:21.349Z,48.37
2018-11-03T01:29:51.639Z,43.93
2018-11-03T01:32:21.960Z,43.63
2018-11-03T01:34:52.411Z,39.50
2018-11-03T01:37:22.693Z,40.03
2018-11-03T01:39:53.090Z,45.23
2018-11-03T01:42:23.475Z,47.40
2018-11-03T01:44:53.799Z,46.73
2018-11-03T01:47:24.086Z,55.50
2018-11-03T01:49:54.408Z,41.87
2018-11-03T01:52:24.685Z,38.57
2018-11-03T01:54:55.047Z,45.57
2018-11-03T01:57:25.374Z,43.60
2018-11-03T01:59:55.728Z,49.43
2018-11-03T02:02:25.925Z,52.43
2018-11-03T02:04:56.188Z,47.83
2018-11-03T02:07:26.564Z,56.87
2018-11-03T02:09:56.822Z,49.60
2018-11-03T02:12:27.358Z,47.47
2018-11-03T02:14:57.653Z,50.43
2018-11-03T02:17:27.906Z,44.17
2018-11-03T02:19:58.185Z,46.93
2018-11-03T02:22:28.511Z,61.13
2018-11-03T02:24:58.810Z,51.67
2018-11-03T02:27:29.048Z,53.73
2018-11-03T02:29:59.228Z,47.60
2018-11-03T02:32:29.479Z,49.63
2018-11-03T02:34:59.746Z,53.53
2018-11-03T02:37:29.975Z,50.53
2018-11-03T02:40:00.292Z,49.37
2018-11-03T02:42:30.568Z,47.33
2018-11-03T02:45:00.819Z,45.03
2018-11-03T02:47:31.078Z,49.23
2018-11-03T02:50:01.337Z,45.07
2018-11-03T02:52:31.588Z,42.13
2018-11-03T02:55:01.842Z,45.90
2018-11-03T02:57:32.092Z,44.93
2018-11-03T03:00:02.412Z,39.10
2018-11-03T03:02:32.658Z,42.43
2018-11-03T03:05:02.972Z,51.83
2018-11-03T03:07:33.251Z,51.60
2018-11-03T03:10:03.572Z,42.90
2018-11-03T03:12:33.952Z,49.90
2018-11-03T03:15:04.533Z,52.07
2018-11-03T03:17:34.902Z,55.90
2018-11-03T03:20:06.043Z,55.73
2018-11-03T03:22:36.465Z,58.23
2018-11-03T03:25:07.574Z,49.40
2018-11-03T03:27:37.922Z,48.97
2018-11-03T03:30:08.492Z,55.30
2018-11-03T03:32:39.132Z,50.17
2018-11-03T03:35:09.625Z,44.60
2018-11-03T03:37:40.164Z,53.57
2018-11-03T03:40:11.164Z,45.63
2018-11-03T03:42:41.646Z,56.30
2018-11-03T03:45:12.207Z,60.47
2018-11-03T03:47:42.719Z,60.33
2018-11-03T03:50:13.205Z,64.63
2018-11-03T03:52:43.694Z,55.90
2018-11-03T03:55:14.574Z,62.80
2018-11-03T03:57:44.935Z,53.57
2018-11-03T04:00:15.564Z,52.87
2018-11-03T04:02:46.440Z,53.47
2018-11-03T04:05:16.883Z,65.70
2018-11-03T04:07:47.469Z,68.03
2018-11-03T04:10:17.865Z,63.07
2018-11-03T04:12:48.484Z,58.87
2018-11-03T04:15:19.098Z,73.03
2018-11-03T04:17:49.617Z,75.97
2018-11-03T04:20:20.379Z,69.83
2018-11-03T04:22:51.119Z,71.40
2018-11-03T04:25:21.992Z,68.67
2018-11-03T04:27:52.907Z,60.57
2018-11-03T04:30:23.578Z,57.57
2018-11-03T04:32:54.218Z,57.47
2018-11-03T04:35:24.679Z,63.07
2018-11-03T04:37:55.283Z,61.63
2018-11-03T04:40:25.845Z,64.57
2018-11-03T04:42:56.566Z,63.23
2018-11-03T04:45:27.204Z,65.80
2018-11-03T04:47:57.747Z,66.60
2018-11-03T04:50:28.460Z,61.50
2018-11-03T04:52:59.166Z,54.17
2018-11-03T04:55:29.635Z,72.00
2018-11-03T04:58:00.028Z,74.60
2018-11-03T05:00:47.339Z,65.80
2018-11-03T05:03:30.771Z,93.00
2018-11-03T05:09:02.998Z,74.27
2018-11-03T05:11:49.087Z,71.97
2018-11-03T05:14:33.725Z,73.27
2018-11-03T05:17:15.457Z,74.40
2018-11-03T05:20:03.029Z,76.30
2018-11-03T05:22:49.795Z,83.57
2018-11-03T05:25:32.468Z,88.57
2018-11-03T05:28:11.197Z,65.83
2018-11-03T05:30:52.107Z,92.00
2018-11-03T05:33:36.372Z,72.33
2018-11-03T05:36:23.210Z,76.57
2018-11-03T05:39:01.131Z,85.63
2018-11-03T05:41:31.632Z,100.97
2018-11-03T05:44:06.373Z,102.93
2018-11-03T05:46:47.370Z,98.67
2018-11-03T05:49:19.874Z,77.60
2018-11-03T05:51:50.242Z,86.37
2018-11-03T05:54:20.864Z,98.33
2018-11-03T05:56:51.278Z,83.20
2018-11-03T05:59:21.697Z,84.80
2018-11-03T06:01:52.095Z,102.17
2018-11-03T06:04:22.627Z,105.70
2018-11-03T06:07:00.123Z,93.33
2018-11-03T06:09:44.727Z,97.43
2018-11-03T06:12:19.818Z,90.93
2018-11-03T06:14:57.890Z,86.57
2018-11-03T06:17:41.295Z,84.83
2018-11-03T06:20:25.012Z,100.63
2018-11-03T06:22:55.987Z,107.37
2018-11-03T06:25:27.204Z,97.03
2018-11-03T06:28:08.480Z,104.97
2018-11-03T06:30:38.921Z,101.50
2018-11-03T06:33:18.881Z,98.43
2018-11-03T06:35:55.080Z,105.90
2018-11-03T06:38:38.232Z,103.77
2018-11-03T06:41:08.845Z,94.43
2018-11-03T06:43:52.214Z,107.77
2018-11-03T06:46:26.638Z,121.17
2018-11-03T06:49:01.947Z,121.30
2018-11-03T06:51:32.594Z,128.53
2018-11-03T06:54:12.117Z,107.63
2018-11-03T06:56:42.816Z,110.83
2018-11-03T06:59:13.264Z,109.10
2018-11-03T07:01:44.021Z,130.10
2018-11-03T07:04:14.411Z,118.17
2018-11-03T07:06:44.963Z,110.57
2018-11-03T07:09:23.829Z,115.80
2018-11-03T07:12:07.057Z,125.00
2018-11-03T07:14:37.551Z,129.10
2018-11-03T07:17:08.036Z,96.37
2018-11-03T07:19:38.492Z,121.47
2018-11-03T07:22:08.866Z,122.47
2018-11-03T07:24:39.350Z,130.93
2018-11-03T07:27:09.994Z,108.93
2018-11-03T07:29:40.554Z,103.17
2018-11-03T07:32:11.233Z,99.37
2018-11-03T07:34:41.837Z,111.93
2018-11-03T07:37:12.087Z,112.87
2018-11-03T07:39:44.392Z,131.77
2018-11-03T07:42:14.796Z,111.60
2018-11-03T07:44:45.149Z,117.30
2018-11-03T07:47:15.359Z,112.40
2018-11-03T07:49:45.734Z,90.07
2018-11-03T07:52:16.024Z,113.93
2018-11-03T07:54:46.467Z,153.17
2018-11-03T07:57:16.616Z,103.90
2018-11-03T07:59:46.991Z,113.17
2018-11-03T08:02:17.333Z,121.70
2018-11-03T08:04:47.637Z,111.83
2018-11-03T08:07:17.954Z,119.07
2018-11-03T08:09:48.302Z,106.77
2018-11-03T08:12:18.778Z,96.70
2018-11-03T08:14:49.085Z,88.90
2018-11-03T08:17:19.315Z,88.67
2018-11-03T08:19:49.576Z,83.00
2018-11-03T08:22:19.857Z,71.90
2018-11-03T08:24:50.067Z,70.77
2018-11-03T08:30:18.022Z,64.57
2018-11-03T08:32:48.271Z,68.43
2018-11-03T08:35:18.623Z,65.10
2018-11-03T08:37:48.917Z,61.87
2018-11-03T08:40:19.256Z,60.57
2018-11-03T08:42:49.597Z,53.73
2018-11-03T08:45:19.885Z,52.60
2018-11-03T08:47:50.208Z,47.30
2018-11-03T08:50:20.490Z,48.27
2018-11-03T08:52:50.786Z,50.13
2018-11-03T08:55:21.098Z,44.37
2018-11-03T08:57:51.380Z,46.00
2018-11-03T09:00:21.704Z,46.53
2018-11-03T09:02:52.079Z,47.47
2018-11-03T09:05:22.408Z,44.77
2018-11-03T09:07:52.733Z,47.10
2018-11-03T09:10:23.000Z,45.10
2018-11-03T09:12:53.350Z,39.83
2018-11-03T09:15:23.643Z,42.13
2018-11-03T09:17:54.184Z,42.97
2018-11-03T09:20:24.759Z,42.10
2018-11-03T09:22:55.248Z,36.57
2018-11-03T09:25:25.528Z,38.27
2018-11-03T09:27:55.848Z,35.27
2018-11-03T09:30:26.336Z,40.03
2018-11-03T09:32:57.839Z,35.57
2018-11-03T09:35:28.086Z,32.17
2018-11-03T09:37:58.612Z,36.43
2018-11-03T09:40:28.882Z,35.73
2018-11-03T09:42:59.412Z,34.50
2018-11-03T09:45:29.665Z,37.03
2018-11-03T09:47:59.911Z,36.13
2018-11-03T09:50:30.350Z,34.50
2018-11-03T09:53:00.780Z,36.10
2018-11-03T09:55:31.053Z,38.00
2018-11-03T09:58:01.413Z,35.83
2018-11-03T10:00:31.683Z,32.70
2018-11-03T10:03:01.985Z,36.63
2018-11-03T10:05:32.191Z,31.17
2018-11-03T10:08:02.516Z,34.80
2018-11-03T10:10:32.686Z,32.77
2018-11-03T10:13:03.080Z,37.73
2018-11-03T10:15:33.530Z,33.70
2018-11-03T10:18:03.831Z,32.77
2018-11-03T10:20:34.072Z,30.70
2018-11-03T10:23:04.465Z,30.23
2018-11-03T10:25:34.786Z,29.43
2018-11-03T10:28:04.991Z,30.67
2018-11-03T10:30:35.210Z,31.97
2018-11-03T10:33:05.597Z,28.93
2018-11-03T10:35:35.802Z,30.63
2018-11-03T10:38:06.051Z,32.27
2018-11-03T10:40:36.274Z,29.73
2018-11-03T10:43:10.567Z,27.87
2018-11-03T10:45:44.373Z,27.13
2018-11-03T10:48:20.685Z,28.53
2018-11-03T10:50:52.035Z,28.53
2018-11-03T10:53:22.268Z,28.87
2018-11-03T10:55:52.463Z,26.50
2018-11-03T10:58:22.679Z,22.90
2018-11-03T11:00:58.131Z,22.93
2018-11-03T11:03:33.646Z,20.33
2018-11-03T11:06:08.866Z,22.03
2018-11-03T11:08:44.052Z,19.53
2018-11-03T11:11:26.089Z,20.77
2018-11-03T11:13:56.262Z,20.40
2018-11-03T11:16:37.797Z,21.67
2018-11-03T11:19:13.499Z,20.90
2018-11-03T11:21:55.771Z,21.47
2018-11-03T11:24:31.064Z,20.83
2018-11-03T11:27:01.362Z,17.17
2018-11-03T11:29:31.526Z,20.97
2018-11-03T11:32:01.727Z,20.87
2018-11-03T11:34:32.172Z,19.37
2018-11-03T11:37:02.353Z,21.03
2018-11-03T11:39:32.596Z,18.87
2018-11-03T11:42:02.788Z,19.37
2018-11-03T11:44:33.001Z,19.83
2018-11-03T11:47:03.179Z,20.97
2018-11-03T11:49:33.482Z,18.53
2018-11-03T11:52:03.722Z,17.37
2018-11-03T11:54:33.997Z,23.93
2018-11-03T11:57:04.306Z,19.23
2018-11-03T11:59:34.500Z,19.67
2018-11-03T12:02:05.096Z,17.53
2018-11-03T12:04:35.313Z,13.17
2018-11-03T12:07:05.575Z,13.07
2018-11-03T12:09:35.913Z,17.07
2018-11-03T12:12:06.184Z,17.03
2018-11-03T12:14:36.456Z,17.20
2018-11-03T12:17:07.071Z,15.73
2018-11-03T12:19:37.388Z,14.80
2018-11-03T12:22:07.577Z,14.20
2018-11-03T12:24:37.804Z,13.57
2018-11-03T12:27:08.008Z,18.07
2018-11-03T12:29:38.212Z,12.27
2018-11-03T12:32:08.427Z,16.17
2018-11-03T12:34:38.659Z,14.33
2018-11-03T12:37:09.022Z,11.23
2018-11-03T12:39:39.285Z,12.67
2018-11-03T12:42:09.804Z,14.63
2018-11-03T12:44:40.127Z,11.80
2018-11-03T12:47:10.389Z,14.60
2018-11-03T12:49:40.659Z,15.43
2018-11-03T12:52:10.934Z,9.27
2018-11-03T12:54:41.223Z,7.83
2018-11-03T12:57:11.461Z,10.40
2018-11-03T12:59:41.722Z,8.37
2018-11-03T13:02:11.907Z,8.03
2018-11-03T13:04:42.093Z,5.40
2018-11-03T13:07:12.351Z,5.70
2018-11-03T13:09:42.640Z,7.00
2018-11-03T13:12:12.958Z,7.13
2018-11-03T13:14:43.120Z,5.83
2018-11-03T13:17:13.344Z,5.47
2018-11-03T13:19:43.584Z,6.60
2018-11-03T13:22:13.813Z,8.40
2018-11-03T13:24:43.982Z,5.70
2018-11-03T13:27:14.102Z,7.20
2018-11-03T13:29:44.342Z,3.87
2018-11-03T13:32:14.584Z,4.70
2018-11-03T13:34:44.785Z,4.97
2018-11-03T13:37:14.982Z,4.93
2018-11-03T13:39:45.171Z,4.97
2018-11-03T13:42:15.413Z,4.77
2018-11-03T13:44:45.542Z,5.73
2018-11-03T13:47:15.733Z,8.47
2018-11-03T13:49:45.963Z,7.43
2018-11-03T13:52:16.152Z,8.30
2018-11-03T13:54:46.258Z,6.93
2018-11-03T13:57:16.464Z,8.60
2018-11-03T13:59:46.677Z,5.37
2018-11-03T14:02:16.907Z,7.00
2018-11-03T14:04:47.062Z,7.53
2018-11-03T14:07:17.248Z,8.77
2018-11-03T14:09:47.444Z,6.93
2018-11-03T14:12:17.594Z,6.37
2018-11-03T14:14:47.754Z,5.60
2018-11-03T14:17:18.023Z,7.03
2018-11-03T14:19:48.214Z,6.53
2018-11-03T14:22:18.349Z,9.23
2018-11-03T14:24:48.556Z,7.73
2018-11-03T14:27:18.779Z,6.90
2018-11-03T14:29:49.103Z,8.37
2018-11-03T14:32:19.482Z,9.63
2018-11-03T14:34:49.684Z,9.20
2018-11-03T14:37:20.042Z,8.47
2018-11-03T14:39:50.227Z,10.90
2018-11-03T14:42:20.436Z,9.73
2018-11-03T14:44:50.684Z,7.23
2018-11-03T14:47:20.814Z,7.40
2018-11-03T14:49:50.927Z,7.27
2018-11-03T14:52:21.184Z,10.30
2018-11-03T14:54:51.961Z,8.07
2018-11-03T14:57:22.366Z,10.50
2018-11-03T14:59:52.625Z,7.67
2018-11-03T15:02:23.021Z,7.97
2018-11-03T15:04:53.170Z,8.03
2018-11-03T15:07:23.422Z,8.67
2018-11-03T15:09:53.654Z,8.43
2018-11-03T15:12:23.832Z,11.43
2018-11-03T15:14:54.087Z,9.23
2018-11-03T15:17:24.327Z,10.47
2018-11-03T15:19:54.573Z,9.43
2018-11-03T15:22:24.733Z,9.80
2018-11-03T15:24:54.969Z,13.50
2018-11-03T15:27:25.162Z,8.33
2018-11-03T15:29:55.514Z,8.83
2018-11-03T15:32:25.791Z,8.30
2018-11-03T15:34:56.136Z,10.97
2018-11-03T15:37:26.291Z,11.87
2018-11-03T15:39:56.530Z,8.17
2018-11-03T15:42:26.748Z,10.40
2018-11-03T15:44:56.956Z,9.30
2018-11-03T15:47:27.151Z,10.37
2018-11-03T15:49:57.298Z,9.07
2018-11-03T15:52:27.422Z,12.63
2018-11-03T15:54:57.602Z,12.60
2018-11-03T15:57:27.787Z,11.30
2018-11-03T15:59:57.935Z,12.47
2018-11-03T16:02:28.329Z,12.83
2018-11-03T16:04:58.516Z,17.17
2018-11-03T16:07:28.678Z,11.70
2018-11-03T16:09:58.907Z,13.33
2018-11-03T16:12:29.181Z,12.30
2018-11-03T16:14:59.384Z,12.20
2018-11-03T16:17:29.551Z,15.87
2018-11-03T16:19:59.692Z,16.90
2018-11-03T16:22:29.844Z,13.53
2018-11-03T16:25:00.045Z,13.20
2018-11-03T16:27:30.283Z,12.97
2018-11-03T16:30:00.402Z,14.03
2018-11-03T16:32:30.795Z,12.50
2018-11-03T16:35:00.764Z,11.83
2018-11-03T16:37:30.890Z,15.03
2018-11-03T16:40:01.056Z,12.70
2018-11-03T16:42:31.191Z,15.57
2018-11-03T16:45:02.135Z,15.43
2018-11-03T16:47:32.349Z,16.33
2018-11-03T16:50:05.604Z,16.57
2018-11-03T16:52:36.098Z,12.73
2018-11-03T16:55:06.969Z,14.33
2018-11-03T16:57:37.742Z,17.17
2018-11-03T17:00:10.001Z,14.87
2018-11-03T17:02:40.535Z,12.80
2018-11-03T17:05:11.881Z,13.53
2018-11-03T17:07:42.119Z,13.90
2018-11-03T17:10:15.812Z,14.30
2018-11-03T17:12:47.262Z,19.10
2018-11-03T17:15:17.552Z,18.10
2018-11-03T17:17:48.783Z,14.83
2018-11-03T17:20:18.889Z,18.57
2018-11-03T17:22:49.048Z,19.10
2018-11-03T17:25:19.366Z,20.70
2018-11-03T17:27:49.373Z,14.73
2018-11-03T17:30:19.523Z,17.80
2018-11-03T17:32:49.645Z,16.43
2018-11-03T17:35:19.819Z,16.53
2018-11-03T17:37:49.917Z,17.23
2018-11-03T17:40:20.064Z,19.60
2018-11-03T17:42:50.198Z,15.70
2018-11-03T17:45:20.417Z,17.33
2018-11-03T17:47:50.529Z,18.80
2018-11-03T17:50:20.709Z,17.60
2018-11-03T17:52:50.831Z,15.50
2018-11-03T17:55:21.118Z,16.33
2018-11-03T17:57:51.275Z,15.67
2018-11-03T18:00:21.695Z,17.10
2018-11-03T18:02:51.724Z,21.57
2018-11-03T18:05:21.907Z,18.27
2018-11-03T18:07:52.095Z,17.97
2018-11-03T18:10:22.236Z,19.13
2018-11-03T18:12:52.421Z,18.53
2018-11-03T18:15:22.584Z,21.60
2018-11-03T18:17:52.769Z,21.40
2018-11-03T18:20:22.976Z,19.10
2018-11-03T18:22:53.091Z,20.37
2018-11-03T18:25:23.297Z,22.00
2018-11-03T18:27:53.407Z,18.27
2018-11-03T18:30:23.574Z,18.53
2018-11-03T18:32:53.763Z,17.27
2018-11-03T18:35:23.865Z,27.07
2018-11-03T18:37:54.056Z,19.60
2018-11-03T18:40:24.171Z,18.30
2018-11-03T18:42:54.314Z,22.73
2018-11-03T18:45:24.469Z,20.20
2018-11-03T18:47:54.636Z,21.30
2018-11-03T18:50:24.856Z,21.93
2018-11-03T18:52:55.019Z,20.83
2018-11-03T18:55:25.201Z,21.03
2018-11-03T18:57:55.381Z,19.60
2018-11-03T19:00:29.055Z,22.40
2018-11-03T19:03:02.927Z,21.97
2018-11-03T19:05:33.149Z,21.07
2018-11-03T19:08:07.596Z,22.97
2018-11-03T19:10:38.221Z,23.33
2018-11-03T19:13:08.633Z,22.60
2018-11-03T19:15:39.352Z,20.10
2018-11-03T19:18:10.641Z,22.43
2018-11-03T19:20:41.793Z,22.50
2018-11-03T19:23:13.307Z,22.57
2018-11-03T19:25:44.978Z,21.27
2018-11-03T19:28:16.082Z,22.07
2018-11-03T19:30:47.341Z,24.00
2018-11-03T19:33:20.041Z,24.03
2018-11-03T19:35:52.649Z,20.43
2018-11-03T19:38:26.011Z,23.27
2018-11-03T19:41:00.473Z,24.47
2018-11-03T19:43:30.725Z,20.47
2018-11-03T19:46:01.039Z,27.10
2018-11-03T19:48:31.258Z,30.33
2018-11-03T19:51:01.420Z,26.23
2018-11-03T19:53:31.536Z,29.20
2018-11-03T19:56:01.713Z,31.97
2018-11-03T19:58:31.900Z,24.80
2018-11-03T20:01:02.093Z,26.60
2018-11-03T20:03:32.457Z,26.47
2018-11-03T20:06:02.695Z,25.23
2018-11-03T20:08:32.883Z,30.47
2018-11-03T20:11:03.063Z,28.17
2018-11-03T20:13:33.209Z,27.60
2018-11-03T20:16:03.399Z,26.57
2018-11-03T20:18:33.591Z,28.73
2018-11-03T20:21:04.672Z,35.33
2018-11-03T20:23:34.904Z,31.33
2018-11-03T20:26:05.138Z,26.90
2018-11-03T20:28:35.374Z,29.73
2018-11-03T20:31:05.760Z,34.77
2018-11-03T20:33:35.977Z,36.07
2018-11-03T20:36:06.300Z,33.60
2018-11-03T20:38:36.554Z,30.93
2018-11-03T20:41:06.878Z,30.73
2018-11-03T20:43:37.071Z,33.70
2018-11-03T20:46:07.356Z,27.60
2018-11-03T20:48:37.488Z,29.27
2018-11-03T20:51:11.097Z,26.00
2018-11-03T20:53:41.688Z,30.60
2018-11-03T20:56:11.896Z,32.17
2018-11-03T20:58:42.028Z,31.73
2018-11-03T21:01:14.302Z,25.87
2018-11-03T21:03:44.507Z,28.53
2018-11-03T21:06:14.690Z,29.40
2018-11-03T21:08:44.804Z,33.37
2018-11-03T21:11:21.880Z,31.63
2018-11-03T21:13:52.842Z,32.87
2018-11-03T21:16:23.103Z,29.17
2018-11-03T21:18:53.335Z,31.53
2018-11-03T21:21:24.085Z,32.50
2018-11-03T21:23:54.441Z,33.07
2018-11-03T21:26:24.608Z,34.07
2018-11-03T21:28:54.823Z,34.20
2018-11-03T21:31:24.966Z,38.13
2018-11-03T21:33:55.318Z,32.90
2018-11-03T21:36:25.681Z,33.70
2018-11-03T21:38:55.827Z,33.17
2018-11-03T21:41:26.047Z,33.47
2018-11-03T21:43:56.220Z,31.17
2018-11-03T21:46:26.461Z,30.97
2018-11-03T21:48:56.617Z,31.87
2018-11-03T21:51:26.845Z,36.10
2018-11-03T21:53:57.012Z,31.97
2018-11-03T21:56:27.203Z,43.03
2018-11-03T21:58:57.391Z,39.90
2018-11-03T22:01:27.596Z,43.73
2018-11-03T22:03:57.801Z,41.13
2018-11-03T22:06:28.130Z,42.33
2018-11-03T22:08:58.307Z,37.10
2018-11-03T22:11:29.012Z,44.63
2018-11-03T22:13:59.200Z,41.60
2018-11-03T22:16:29.426Z,37.93
2018-11-03T22:18:59.550Z,49.67
2018-11-03T22:21:31.208Z,45.27
2018-11-03T22:24:02.023Z,45.50
2018-11-03T22:29:25.121Z,38.80
2018-11-03T22:31:57.880Z,38.60
2018-11-03T22:34:28.099Z,40.33
2018-11-03T22:37:01.603Z,44.70
2018-11-03T22:39:31.781Z,43.80
2018-11-03T22:42:02.528Z,44.20
2018-11-03T22:44:50.335Z,57.20
2018-11-03T22:47:20.537Z,49.70
2018-11-03T22:49:50.689Z,44.93
2018-11-03T22:52:20.876Z,57.67
2018-11-03T22:54:50.999Z,46.00
2018-11-03T22:57:21.153Z,44.67
2018-11-03T22:59:51.376Z,48.47
2018-11-03T23:02:21.514Z,50.07
2018-11-03T23:04:51.814Z,45.80
2018-11-03T23:07:21.969Z,44.87
2018-11-03T23:09:52.160Z,55.63
2018-11-03T23:12:22.376Z,52.00
2018-11-03T23:14:52.527Z,48.47
2018-11-03T23:17:22.787Z,47.47
2018-11-03T23:19:52.906Z,44.57
2018-11-03T23:22:23.079Z,42.10
2018-11-03T23:24:53.237Z,57.60
2018-11-03T23:27:23.428Z,55.70
2018-11-03T23:29:53.674Z,47.27
2018-11-03T23:32:23.757Z,52.13
2018-11-03T23:34:54.178Z,53.67
2018-11-03T23:37:24.311Z,51.60
2018-11-03T23:39:54.514Z,52.50
2018-11-03T23:42:24.664Z,46.90
2018-11-03T23:44:54.904Z,47.87
2018-11-03T23:47:25.064Z,45.93
2018-11-03T23:49:55.265Z,50.33
2018-11-03T23:52:30.442Z,49.97
2018-11-03T23:55:00.622Z,52.20
2018-11-03T23:57:31.034Z,52.33
